createdAt,value
2018-08-09T01:31:42.618Z,17.47
2018-08-09T01:31:43.118Z,17.46
2018-08-09T01:31:43.719Z,17.43
2018-08-09T01:31:44.315Z,17.46
2018-08-09T01:31:44.917Z,17.41
2018-08-09T01:31:45.522Z,17.47
2018-08-09T01:31:46.117Z,17.43
2018-08-09T01:32:40.600Z,17.47
2018-08-09T01:32:41.195Z,17.43
2018-08-09T01:32:41.783Z,17.41
2018-08-09T01:32:42.419Z,17.53
2018-08-09T01:32:43.002Z,17.47
2018-08-09T01:32:43.596Z,17.48
2018-08-09T01:32:44.184Z,17.44
2018-08-09T01:32:44.802Z,17.53
2018-08-09T01:33:39.274Z,17.46
2018-08-09T01:33:39.844Z,17.44
2018-08-09T01:33:40.443Z,17.43
2018-08-09T01:33:41.043Z,17.53
2018-08-09T01:33:41.646Z,17.40
2018-08-09T01:33:42.243Z,17.41
2018-08-09T01:33:42.842Z,17.44
2018-08-09T01:33:43.446Z,17.47
2018-08-09T01:34:36.926Z,17.35
2018-08-09T01:34:37.497Z,17.43
2018-08-09T01:34:38.101Z,17.40
2018-08-09T01:34:38.698Z,17.46
2018-08-09T01:34:39.297Z,17.44
2018-08-09T01:34:39.901Z,17.46
2018-08-09T01:34:40.498Z,17.44
2018-08-09T01:34:41.098Z,17.46
2018-08-09T01:35:35.600Z,17.41
2018-08-09T01:35:36.173Z,17.43
2018-08-09T01:35:36.773Z,17.36
2018-08-09T01:35:37.372Z,17.43
2018-08-09T01:35:37.972Z,17.36
2018-08-09T01:35:38.571Z,17.38
2018-08-09T01:35:39.170Z,17.41
2018-08-09T01:35:39.771Z,17.41
2018-08-09T01:36:33.252Z,17.41
2018-08-09T01:36:33.828Z,17.36
2018-08-09T01:36:34.423Z,17.47
2018-08-09T01:36:35.025Z,17.41
2018-08-09T01:36:35.628Z,17.46
2018-08-09T01:36:36.224Z,17.44
2018-08-09T01:36:36.825Z,17.44
2018-08-09T01:36:37.425Z,17.46
2018-08-09T01:37:31.928Z,17.41
2018-08-09T01:37:32.498Z,17.40
2018-08-09T01:37:33.100Z,17.46
2018-08-09T01:37:33.735Z,17.40
2018-08-09T01:37:34.299Z,17.44
2018-08-09T01:37:34.902Z,17.46
2018-08-09T01:37:35.500Z,17.41
2018-08-09T01:37:36.098Z,17.41
2018-08-09T01:38:29.580Z,17.47
2018-08-09T01:38:30.153Z,17.47
2018-08-09T01:38:30.752Z,17.48
2018-08-09T01:38:31.353Z,17.46
2018-08-09T01:38:31.951Z,17.44
2018-08-09T01:38:32.553Z,17.51
2018-08-09T01:38:33.151Z,17.44
2018-08-09T01:38:33.750Z,17.47
2018-08-09T01:39:27.232Z,17.40
2018-08-09T01:39:27.806Z,17.46
2018-08-09T01:39:28.404Z,17.43
2018-08-09T01:39:29.005Z,17.48
2018-08-09T01:39:29.604Z,17.51
2018-08-09T01:39:30.203Z,17.48
2018-08-09T01:39:30.803Z,17.47
2018-08-09T01:39:31.403Z,17.41
2018-08-09T01:40:24.986Z,17.43
2018-08-09T01:40:25.559Z,17.50
2018-08-09T01:40:26.160Z,17.46
2018-08-09T01:40:26.760Z,17.47
2018-08-09T01:40:27.358Z,17.50
2018-08-09T01:40:27.959Z,17.47
2018-08-09T01:40:28.559Z,17.48
2018-08-09T01:40:29.158Z,17.47
2018-08-09T01:41:22.637Z,17.44
2018-08-09T01:41:23.210Z,17.48
2018-08-09T01:41:23.811Z,17.54
2018-08-09T01:41:24.411Z,17.48
2018-08-09T01:41:25.011Z,17.47
2018-08-09T01:41:25.610Z,17.46
2018-08-09T01:41:26.210Z,17.47
2018-08-09T01:41:26.811Z,17.40
2018-08-09T01:42:20.289Z,17.47
2018-08-09T01:42:20.863Z,17.43
2018-08-09T01:42:21.462Z,17.47
2018-08-09T01:42:22.063Z,17.50
2018-08-09T01:42:22.663Z,17.46
2018-08-09T01:42:23.262Z,17.50
2018-08-09T01:42:23.862Z,17.46
2018-08-09T01:42:24.465Z,17.47
2018-08-09T01:43:17.942Z,17.47
2018-08-09T01:43:18.513Z,17.48
2018-08-09T01:43:19.113Z,17.48
2018-08-09T01:43:19.715Z,17.48
2018-08-09T01:43:20.313Z,17.53
2018-08-09T01:43:20.915Z,17.50
2018-08-09T01:43:21.515Z,17.55
2018-08-09T01:43:22.112Z,17.54
2018-08-09T01:44:16.617Z,17.54
2018-08-09T01:44:17.190Z,17.55
2018-08-09T01:44:17.789Z,17.59
2018-08-09T01:44:18.389Z,17.53
2018-08-09T01:44:18.989Z,17.62
2018-08-09T01:44:19.589Z,17.64
2018-08-09T01:44:20.188Z,17.62
2018-08-09T01:44:20.788Z,17.59
2018-08-09T01:45:14.270Z,17.63
2018-08-09T01:45:14.842Z,17.57
2018-08-09T01:45:15.441Z,17.67
2018-08-09T01:45:16.042Z,17.59
2018-08-09T01:45:16.641Z,17.59
2018-08-09T01:45:17.242Z,17.63
2018-08-09T01:45:17.841Z,17.59
2018-08-09T01:45:18.443Z,17.59
2018-08-09T01:46:12.947Z,17.67
2018-08-09T01:46:13.515Z,17.64
2018-08-09T01:46:14.117Z,17.69
2018-08-09T01:46:14.716Z,17.66
2018-08-09T01:46:15.320Z,17.71
2018-08-09T01:46:15.914Z,17.70
2018-08-09T01:46:16.515Z,17.70
2018-08-09T01:46:17.117Z,17.71
2018-08-09T01:47:11.619Z,17.76
2018-08-09T01:47:12.194Z,17.76
2018-08-09T01:47:12.793Z,17.79
2018-08-09T01:47:13.393Z,17.73
2018-08-09T01:47:13.993Z,17.79
2018-08-09T01:47:14.593Z,17.73
2018-08-09T01:47:15.193Z,17.73
2018-08-09T01:47:15.793Z,17.73
2018-08-09T01:48:10.296Z,17.82
2018-08-09T01:48:10.869Z,17.92
2018-08-09T01:48:11.469Z,17.78
2018-08-09T01:48:12.069Z,17.87
2018-08-09T01:48:12.669Z,17.82
2018-08-09T01:48:13.268Z,17.87
2018-08-09T01:48:13.868Z,17.82
2018-08-09T01:48:14.471Z,17.84
2018-08-09T01:49:08.973Z,17.81
2018-08-09T01:49:09.545Z,17.92
2018-08-09T01:49:10.148Z,17.89
2018-08-09T01:49:10.745Z,17.85
2018-08-09T01:49:11.345Z,17.85
2018-08-09T01:49:11.943Z,17.79
2018-08-09T01:49:12.543Z,17.88
2018-08-09T01:49:13.145Z,17.82
2018-08-09T01:50:06.633Z,17.87
2018-08-09T01:50:07.198Z,17.94
2018-08-09T01:50:07.798Z,17.91
2018-08-09T01:50:08.398Z,17.91
2018-08-09T01:50:08.997Z,17.92
2018-08-09T01:50:09.597Z,17.91
2018-08-09T01:50:10.197Z,17.94
2018-08-09T01:50:10.797Z,17.91
2018-08-09T01:51:04.277Z,18.04
2018-08-09T01:51:04.849Z,17.97
2018-08-09T01:51:05.448Z,17.97
2018-08-09T01:51:06.050Z,18.00
2018-08-09T01:51:06.649Z,17.99
2018-08-09T01:51:07.249Z,18.03
2018-08-09T01:51:07.850Z,18.02
2018-08-09T01:51:08.449Z,18.03
2018-08-09T01:52:03.770Z,18.10
2018-08-09T01:52:04.343Z,18.21
2018-08-09T01:52:04.943Z,18.09
2018-08-09T01:52:05.544Z,18.13
2018-08-09T01:52:06.142Z,18.10
2018-08-09T01:52:06.741Z,18.07
2018-08-09T01:52:07.344Z,18.09
2018-08-09T01:52:07.957Z,18.10
2018-08-09T01:53:02.447Z,18.13
2018-08-09T01:53:03.020Z,18.15
2018-08-09T01:53:03.618Z,18.17
2018-08-09T01:53:04.221Z,18.18
2018-08-09T01:53:04.818Z,18.24
2018-08-09T01:53:05.419Z,18.19
2018-08-09T01:53:06.019Z,18.21
2018-08-09T01:53:06.619Z,18.21
2018-08-09T01:54:01.124Z,18.21
2018-08-09T01:54:01.694Z,18.28
2018-08-09T01:54:02.293Z,18.25
2018-08-09T01:54:02.895Z,18.28
2018-08-09T01:54:03.495Z,18.19
2018-08-09T01:54:04.095Z,18.27
2018-08-09T01:54:04.695Z,18.29
2018-08-09T01:54:05.296Z,18.31
2018-08-09T01:54:59.797Z,18.36
2018-08-09T01:55:00.376Z,18.34
2018-08-09T01:55:00.980Z,18.31
2018-08-09T01:55:01.571Z,18.36
2018-08-09T01:55:02.171Z,18.37
2018-08-09T01:55:02.770Z,18.37
2018-08-09T01:55:03.369Z,18.36
2018-08-09T01:55:03.971Z,18.33
2018-08-09T01:55:58.476Z,18.34
2018-08-09T01:55:59.047Z,18.39
2018-08-09T01:55:59.659Z,18.31
2018-08-09T01:56:00.247Z,18.54
2018-08-09T01:56:00.846Z,18.42
2018-08-09T01:56:01.447Z,18.52
2018-08-09T01:56:02.045Z,18.40
2018-08-09T01:56:02.647Z,18.46
2018-08-09T01:56:57.151Z,18.43
2018-08-09T01:56:57.722Z,18.44
2018-08-09T01:56:58.321Z,18.43
2018-08-09T01:56:58.922Z,18.46
2018-08-09T01:56:59.521Z,18.44
2018-08-09T01:57:00.125Z,18.46
2018-08-09T01:57:00.725Z,18.49
2018-08-09T01:57:01.323Z,18.44
2018-08-09T01:57:55.828Z,18.52
2018-08-09T01:57:56.399Z,18.65
2018-08-09T01:57:56.998Z,18.59
2018-08-09T01:57:57.598Z,18.59
2018-08-09T01:57:58.197Z,18.58
2018-08-09T01:57:58.796Z,18.54
2018-08-09T01:57:59.396Z,18.50
2018-08-09T01:57:59.998Z,18.54
2018-08-09T01:58:54.501Z,18.68
2018-08-09T01:58:55.073Z,18.62
2018-08-09T01:58:55.674Z,18.59
2018-08-09T01:58:56.277Z,18.57
2018-08-09T01:58:56.872Z,18.67
2018-08-09T01:58:57.475Z,18.61
2018-08-09T01:58:58.073Z,18.57
2018-08-09T01:58:58.671Z,18.54
2018-08-09T01:59:53.177Z,18.58
2018-08-09T01:59:53.751Z,18.72
2018-08-09T01:59:54.349Z,18.68
2018-08-09T01:59:54.950Z,18.68
2018-08-09T01:59:55.549Z,18.64
2018-08-09T01:59:56.148Z,18.70
2018-08-09T01:59:56.750Z,18.73
2018-08-09T01:59:57.349Z,18.70
2018-08-09T02:00:50.830Z,18.62
2018-08-09T02:00:51.435Z,18.62
2018-08-09T02:00:52.002Z,18.72
2018-08-09T02:00:52.602Z,18.68
2018-08-09T02:00:53.201Z,18.72
2018-08-09T02:00:53.801Z,18.62
2018-08-09T02:00:54.402Z,18.64
2018-08-09T02:00:55.006Z,18.67
2018-08-09T02:01:49.504Z,18.80
2018-08-09T02:01:50.077Z,18.77
2018-08-09T02:01:50.677Z,18.72
2018-08-09T02:01:51.283Z,18.74
2018-08-09T02:01:51.877Z,18.77
2018-08-09T02:01:52.479Z,18.79
2018-08-09T02:01:53.077Z,18.82
2018-08-09T02:01:53.676Z,18.76
2018-08-09T02:02:47.156Z,18.79
2018-08-09T02:02:47.730Z,18.80
2018-08-09T02:02:48.329Z,18.84
2018-08-09T02:02:48.929Z,18.90
2018-08-09T02:02:49.530Z,18.79
2018-08-09T02:02:50.128Z,18.76
2018-08-09T02:02:50.728Z,18.77
2018-08-09T02:02:51.332Z,18.83
2018-08-09T02:03:45.831Z,18.84
2018-08-09T02:03:46.405Z,18.77
2018-08-09T02:03:47.006Z,18.87
2018-08-09T02:03:47.605Z,18.84
2018-08-09T02:03:48.205Z,18.92
2018-08-09T02:03:48.805Z,18.87
2018-08-09T02:03:49.404Z,18.87
2018-08-09T02:03:50.003Z,18.80
2018-08-09T02:04:44.622Z,18.92
2018-08-09T02:04:45.140Z,18.87
2018-08-09T02:04:45.783Z,18.91
2018-08-09T02:04:46.367Z,18.92
2018-08-09T02:04:46.902Z,18.99
2018-08-09T02:04:47.556Z,18.91
2018-08-09T02:04:48.173Z,18.94
2018-08-09T02:04:48.738Z,18.95
2018-08-09T02:05:43.185Z,18.95
2018-08-09T02:05:43.756Z,19.01
2018-08-09T02:05:44.356Z,19.01
2018-08-09T02:05:44.957Z,18.94
2018-08-09T02:05:45.556Z,18.99
2018-08-09T02:05:46.156Z,18.95
2018-08-09T02:05:46.755Z,18.95
2018-08-09T02:05:47.356Z,18.99
2018-08-09T02:06:40.837Z,18.97
2018-08-09T02:06:41.409Z,19.05
2018-08-09T02:06:42.010Z,18.97
2018-08-09T02:06:42.608Z,18.97
2018-08-09T02:06:43.234Z,18.98
2018-08-09T02:06:43.808Z,19.01
2018-08-09T02:06:44.408Z,19.01
2018-08-09T02:06:45.009Z,19.01
2018-08-09T02:07:38.487Z,19.06
2018-08-09T02:07:39.061Z,19.05
2018-08-09T02:07:39.660Z,19.05
2018-08-09T02:07:40.261Z,19.05
2018-08-09T02:07:40.877Z,19.01
2018-08-09T02:07:41.499Z,19.06
2018-08-09T02:07:42.060Z,18.98
2018-08-09T02:07:42.661Z,19.02
2018-08-09T02:08:37.163Z,19.08
2018-08-09T02:08:37.735Z,18.98
2018-08-09T02:08:38.336Z,19.05
2018-08-09T02:08:38.935Z,19.11
2018-08-09T02:08:39.535Z,19.13
2018-08-09T02:08:40.136Z,19.01
2018-08-09T02:08:40.736Z,19.05
2018-08-09T02:08:41.334Z,19.08
2018-08-09T02:09:35.837Z,19.14
2018-08-09T02:09:36.412Z,19.17
2018-08-09T02:09:37.016Z,19.13
2018-08-09T02:09:37.612Z,19.13
2018-08-09T02:09:38.213Z,19.13
2018-08-09T02:09:38.812Z,19.15
2018-08-09T02:09:39.410Z,19.11
2018-08-09T02:09:40.012Z,19.13
2018-08-09T02:10:46.191Z,19.23
2018-08-09T02:10:46.760Z,19.15
2018-08-09T02:10:47.361Z,19.15
2018-08-09T02:10:47.960Z,19.24
2018-08-09T02:10:48.561Z,19.14
2018-08-09T02:10:49.160Z,19.28
2018-08-09T02:10:49.759Z,19.21
2018-08-09T02:10:50.361Z,19.20
2018-08-09T02:11:44.881Z,19.18
2018-08-09T02:11:45.440Z,19.31
2018-08-09T02:11:46.036Z,19.25
2018-08-09T02:11:46.636Z,19.25
2018-08-09T02:11:47.236Z,19.24
2018-08-09T02:11:47.835Z,19.24
2018-08-09T02:11:48.435Z,19.20
2018-08-09T02:11:49.035Z,19.20
2018-08-09T02:12:42.515Z,19.28
2018-08-09T02:12:43.091Z,19.29
2018-08-09T02:12:43.688Z,19.20
2018-08-09T02:12:44.290Z,19.32
2018-08-09T02:12:44.889Z,19.35
2018-08-09T02:12:45.490Z,19.20
2018-08-09T02:12:46.089Z,19.32
2018-08-09T02:12:46.690Z,19.35
2018-08-09T02:13:40.169Z,19.28
2018-08-09T02:13:40.742Z,19.42
2018-08-09T02:13:41.340Z,19.33
2018-08-09T02:13:41.941Z,19.35
2018-08-09T02:13:42.540Z,19.33
2018-08-09T02:13:43.142Z,19.36
2018-08-09T02:13:43.740Z,19.33
2018-08-09T02:13:44.340Z,19.35
2018-08-09T02:14:38.843Z,19.36
2018-08-09T02:14:39.416Z,19.38
2018-08-09T02:14:40.016Z,19.33
2018-08-09T02:14:40.615Z,19.33
2018-08-09T02:14:41.216Z,19.36
2018-08-09T02:14:41.817Z,19.35
2018-08-09T02:14:42.415Z,19.39
2018-08-09T02:14:43.015Z,19.38
2018-08-09T02:15:37.522Z,19.35
2018-08-09T02:15:38.091Z,19.38
2018-08-09T02:15:38.691Z,19.38
2018-08-09T02:15:39.292Z,19.40
2018-08-09T02:15:39.892Z,19.35
2018-08-09T02:15:40.494Z,19.46
2018-08-09T02:15:41.092Z,19.32
2018-08-09T02:15:41.691Z,19.35
2018-08-09T02:16:36.195Z,19.48
2018-08-09T02:16:36.768Z,19.43
2018-08-09T02:16:37.366Z,19.46
2018-08-09T02:16:37.982Z,19.35
2018-08-09T02:16:38.566Z,19.50
2018-08-09T02:16:39.166Z,19.43
2018-08-09T02:16:39.767Z,19.50
2018-08-09T02:16:40.366Z,19.51
2018-08-09T02:17:33.847Z,19.46
2018-08-09T02:17:34.420Z,19.46
2018-08-09T02:17:35.018Z,19.40
2018-08-09T02:17:35.622Z,19.53
2018-08-09T02:17:36.220Z,19.47
2018-08-09T02:17:36.820Z,19.48
2018-08-09T02:17:37.419Z,19.50
2018-08-09T02:17:38.020Z,19.51
2018-08-09T02:18:31.499Z,19.50
2018-08-09T02:18:32.071Z,19.48
2018-08-09T02:18:32.675Z,19.46
2018-08-09T02:18:33.271Z,19.47
2018-08-09T02:18:33.869Z,19.54
2018-08-09T02:18:34.469Z,19.38
2018-08-09T02:18:35.068Z,19.51
2018-08-09T02:18:35.668Z,19.47
2018-08-09T02:19:29.254Z,19.50
2018-08-09T02:19:29.830Z,19.51
2018-08-09T02:19:30.426Z,19.50
2018-08-09T02:19:31.026Z,19.48
2018-08-09T02:19:31.626Z,19.40
2018-08-09T02:19:32.226Z,19.46
2018-08-09T02:19:32.825Z,19.57
2018-08-09T02:19:33.427Z,19.48
2018-08-09T02:20:27.009Z,19.38
2018-08-09T02:20:27.580Z,19.51
2018-08-09T02:20:28.181Z,19.48
2018-08-09T02:20:28.780Z,19.47
2018-08-09T02:20:29.380Z,19.53
2018-08-09T02:20:29.980Z,19.48
2018-08-09T02:20:30.580Z,19.50
2018-08-09T02:20:31.181Z,19.51
2018-08-09T02:21:24.658Z,19.40
2018-08-09T02:21:25.230Z,19.51
2018-08-09T02:21:25.833Z,19.43
2018-08-09T02:21:26.431Z,19.36
2018-08-09T02:21:27.032Z,19.46
2018-08-09T02:21:27.630Z,19.50
2018-08-09T02:21:28.231Z,19.50
2018-08-09T02:21:28.831Z,19.50
2018-08-09T02:22:22.310Z,19.36
2018-08-09T02:22:22.883Z,19.33
2018-08-09T02:22:23.486Z,19.47
2018-08-09T02:22:24.083Z,19.46
2018-08-09T02:22:24.683Z,19.50
2018-08-09T02:22:25.283Z,19.46
2018-08-09T02:22:25.884Z,19.47
2018-08-09T02:22:26.483Z,19.39
2018-08-09T02:23:20.985Z,19.38
2018-08-09T02:23:21.559Z,19.43
2018-08-09T02:23:22.171Z,19.47
2018-08-09T02:23:22.758Z,19.43
2018-08-09T02:23:23.361Z,19.39
2018-08-09T02:23:23.959Z,19.36
2018-08-09T02:23:24.557Z,19.43
2018-08-09T02:23:25.156Z,19.46
2018-08-09T02:24:18.639Z,19.39
2018-08-09T02:24:19.211Z,19.38
2018-08-09T02:24:19.813Z,19.35
2018-08-09T02:24:20.413Z,19.36
2018-08-09T02:24:21.010Z,19.38
2018-08-09T02:24:21.611Z,19.40
2018-08-09T02:24:22.210Z,19.38
2018-08-09T02:24:22.816Z,19.38
2018-08-09T02:25:16.290Z,19.36
2018-08-09T02:25:16.863Z,19.36
2018-08-09T02:25:17.463Z,19.38
2018-08-09T02:25:18.063Z,19.43
2018-08-09T02:25:18.663Z,19.32
2018-08-09T02:25:19.264Z,19.40
2018-08-09T02:25:19.865Z,19.35
2018-08-09T02:25:20.462Z,19.36
2018-08-09T02:26:14.966Z,19.35
2018-08-09T02:26:15.553Z,19.36
2018-08-09T02:26:16.138Z,19.36
2018-08-09T02:26:16.737Z,19.39
2018-08-09T02:26:17.337Z,19.39
2018-08-09T02:26:17.938Z,19.36
2018-08-09T02:26:18.536Z,19.38
2018-08-09T02:26:19.137Z,19.40
2018-08-09T02:27:12.617Z,19.40
2018-08-09T02:27:13.189Z,19.35
2018-08-09T02:27:13.789Z,19.39
2018-08-09T02:27:14.389Z,19.42
2018-08-09T02:27:14.991Z,19.36
2018-08-09T02:27:15.589Z,19.40
2018-08-09T02:27:16.189Z,19.39
2018-08-09T02:27:16.791Z,19.42
2018-08-09T02:28:10.372Z,19.36
2018-08-09T02:28:10.945Z,19.39
2018-08-09T02:28:11.546Z,19.39
2018-08-09T02:28:12.145Z,19.40
2018-08-09T02:28:12.744Z,19.36
2018-08-09T02:28:13.345Z,19.32
2018-08-09T02:28:13.945Z,19.36
2018-08-09T02:28:14.544Z,19.42
2018-08-09T02:29:08.025Z,19.36
2018-08-09T02:29:08.595Z,19.35
2018-08-09T02:29:09.195Z,19.36
2018-08-09T02:29:09.795Z,19.39
2018-08-09T02:29:10.394Z,19.36
2018-08-09T02:29:10.996Z,19.36
2018-08-09T02:29:11.595Z,19.32
2018-08-09T02:29:12.197Z,19.38
2018-08-09T02:30:05.683Z,19.38
2018-08-09T02:30:06.250Z,19.42
2018-08-09T02:30:06.845Z,19.35
2018-08-09T02:30:07.445Z,19.35
2018-08-09T02:30:08.049Z,19.32
2018-08-09T02:30:08.646Z,19.39
2018-08-09T02:30:09.261Z,19.33
2018-08-09T02:30:09.850Z,19.39
2018-08-09T02:31:03.430Z,19.33
2018-08-09T02:31:04.002Z,19.35
2018-08-09T02:31:04.601Z,19.33
2018-08-09T02:31:05.203Z,19.36
2018-08-09T02:31:05.812Z,19.32
2018-08-09T02:31:06.402Z,19.36
2018-08-09T02:31:07.004Z,19.33
2018-08-09T02:31:07.606Z,19.32
2018-08-09T02:32:01.089Z,19.33
2018-08-09T02:32:01.654Z,19.32
2018-08-09T02:32:02.271Z,19.32
2018-08-09T02:32:02.855Z,19.31
2018-08-09T02:32:03.454Z,19.42
2018-08-09T02:32:04.055Z,19.32
2018-08-09T02:32:04.657Z,19.33
2018-08-09T02:32:05.255Z,19.31
2018-08-09T02:32:58.740Z,19.25
2018-08-09T02:32:59.307Z,19.38
2018-08-09T02:32:59.907Z,19.36
2018-08-09T02:33:00.506Z,19.36
2018-08-09T02:33:01.106Z,19.39
2018-08-09T02:33:01.707Z,19.38
2018-08-09T02:33:02.308Z,19.36
2018-08-09T02:33:02.911Z,19.38
2018-08-09T02:33:57.420Z,19.32
2018-08-09T02:33:57.981Z,19.40
2018-08-09T02:33:58.581Z,19.39
2018-08-09T02:33:59.181Z,19.39
2018-08-09T02:33:59.781Z,19.43
2018-08-09T02:34:00.380Z,19.38
2018-08-09T02:34:00.982Z,19.36
2018-08-09T02:34:01.584Z,19.36
2018-08-09T02:34:56.094Z,19.35
2018-08-09T02:34:56.656Z,19.40
2018-08-09T02:34:57.255Z,19.40
2018-08-09T02:34:57.860Z,19.36
2018-08-09T02:34:58.454Z,19.38
2018-08-09T02:34:59.056Z,19.35
2018-08-09T02:34:59.655Z,19.40
2018-08-09T02:35:00.254Z,19.38
2018-08-09T02:35:54.758Z,19.36
2018-08-09T02:35:55.335Z,19.36
2018-08-09T02:35:55.931Z,19.38
2018-08-09T02:35:56.542Z,19.42
2018-08-09T02:35:57.130Z,19.42
2018-08-09T02:35:57.732Z,19.40
2018-08-09T02:35:58.330Z,19.43
2018-08-09T02:35:58.933Z,19.39
2018-08-09T02:36:52.412Z,19.35
2018-08-09T02:36:52.985Z,19.36
2018-08-09T02:36:53.586Z,19.38
2018-08-09T02:36:54.184Z,19.38
2018-08-09T02:36:54.784Z,19.39
2018-08-09T02:36:55.389Z,19.39
2018-08-09T02:36:55.984Z,19.33
2018-08-09T02:36:56.586Z,19.39
2018-08-09T02:37:51.087Z,19.21
2018-08-09T02:37:51.659Z,19.35
2018-08-09T02:37:52.268Z,19.31
2018-08-09T02:37:52.858Z,19.31
2018-08-09T02:37:53.458Z,19.33
2018-08-09T02:37:54.059Z,19.33
2018-08-09T02:37:54.661Z,19.33
2018-08-09T02:37:55.255Z,19.36
2018-08-09T02:38:48.755Z,19.36
2018-08-09T02:38:49.314Z,19.29
2018-08-09T02:38:49.911Z,19.31
2018-08-09T02:38:50.511Z,19.31
2018-08-09T02:38:51.111Z,19.31
2018-08-09T02:38:51.711Z,19.32
2018-08-09T02:38:52.318Z,19.32
2018-08-09T02:38:52.911Z,19.28
2018-08-09T02:39:47.415Z,19.21
2018-08-09T02:39:47.985Z,19.33
2018-08-09T02:39:48.592Z,19.24
2018-08-09T02:39:49.187Z,19.29
2018-08-09T02:39:49.787Z,19.35
2018-08-09T02:39:50.388Z,19.25
2018-08-09T02:39:50.989Z,19.33
2018-08-09T02:39:51.594Z,19.29
2018-08-09T02:40:46.091Z,19.25
2018-08-09T02:40:46.663Z,19.28
2018-08-09T02:40:47.264Z,19.25
2018-08-09T02:40:47.863Z,19.21
2018-08-09T02:40:48.464Z,19.23
2018-08-09T02:40:49.062Z,19.33
2018-08-09T02:40:49.664Z,19.24
2018-08-09T02:40:50.263Z,19.28
2018-08-09T02:41:43.743Z,19.20
2018-08-09T02:41:44.314Z,19.25
2018-08-09T02:41:44.915Z,19.23
2018-08-09T02:41:45.514Z,19.25
2018-08-09T02:41:46.113Z,19.24
2018-08-09T02:41:46.776Z,19.24
2018-08-09T02:41:47.317Z,19.21
2018-08-09T02:41:47.914Z,19.23
2018-08-09T02:42:41.393Z,19.14
2018-08-09T02:42:41.970Z,19.17
2018-08-09T02:42:42.614Z,19.17
2018-08-09T02:42:43.167Z,19.28
2018-08-09T02:42:43.767Z,19.29
2018-08-09T02:42:44.367Z,19.24
2018-08-09T02:42:44.966Z,19.25
2018-08-09T02:42:45.567Z,19.15
2018-08-09T02:43:40.070Z,19.13
2018-08-09T02:43:40.641Z,19.14
2018-08-09T02:43:41.241Z,19.25
2018-08-09T02:43:41.842Z,19.11
2018-08-09T02:43:42.442Z,19.15
2018-08-09T02:43:43.041Z,19.17
2018-08-09T02:43:43.642Z,19.14
2018-08-09T02:43:44.242Z,19.18
2018-08-09T02:44:37.734Z,19.11
2018-08-09T02:44:38.294Z,19.20
2018-08-09T02:44:38.897Z,19.20
2018-08-09T02:44:39.494Z,19.14
2018-08-09T02:44:40.094Z,19.11
2018-08-09T02:44:40.694Z,19.15
2018-08-09T02:44:41.295Z,19.15
2018-08-09T02:44:41.894Z,19.21
2018-08-09T02:45:35.372Z,19.20
2018-08-09T02:45:35.946Z,19.10
2018-08-09T02:45:36.559Z,19.15
2018-08-09T02:45:37.144Z,19.18
2018-08-09T02:45:37.742Z,19.13
2018-08-09T02:45:38.345Z,19.14
2018-08-09T02:45:38.943Z,19.11
2018-08-09T02:45:39.544Z,19.11
2018-08-09T02:46:34.054Z,19.11
2018-08-09T02:46:34.622Z,19.08
2018-08-09T02:46:35.243Z,19.10
2018-08-09T02:46:35.864Z,19.13
2018-08-09T02:46:36.474Z,19.15
2018-08-09T02:46:37.050Z,19.11
2018-08-09T02:46:37.655Z,19.15
2018-08-09T02:46:38.236Z,19.13
2018-08-09T02:47:32.725Z,19.10
2018-08-09T02:47:33.296Z,19.06
2018-08-09T02:47:33.897Z,19.17
2018-08-09T02:47:34.496Z,19.06
2018-08-09T02:47:35.096Z,19.15
2018-08-09T02:47:35.697Z,19.14
2018-08-09T02:47:36.297Z,19.11
2018-08-09T02:47:36.898Z,19.02
2018-08-09T02:48:30.376Z,18.99
2018-08-09T02:48:30.952Z,18.97
2018-08-09T02:48:31.553Z,18.98
2018-08-09T02:48:32.155Z,18.99
2018-08-09T02:48:32.748Z,19.02
2018-08-09T02:48:33.350Z,18.99
2018-08-09T02:48:33.948Z,19.01
2018-08-09T02:48:34.559Z,19.01
2018-08-09T02:49:29.051Z,19.05
2018-08-09T02:49:29.623Z,18.99
2018-08-09T02:49:30.223Z,19.01
2018-08-09T02:49:30.823Z,19.02
2018-08-09T02:49:31.424Z,19.05
2018-08-09T02:49:32.036Z,19.05
2018-08-09T02:49:32.621Z,19.01
2018-08-09T02:49:33.224Z,19.10
2018-08-09T02:50:27.727Z,18.94
2018-08-09T02:50:28.307Z,18.97
2018-08-09T02:50:28.901Z,18.95
2018-08-09T02:50:29.499Z,18.94
2018-08-09T02:50:30.106Z,18.98
2018-08-09T02:50:30.703Z,18.99
2018-08-09T02:50:31.301Z,19.02
2018-08-09T02:50:31.900Z,18.99
2018-08-09T02:51:26.403Z,18.99
2018-08-09T02:51:26.974Z,18.91
2018-08-09T02:51:27.575Z,18.95
2018-08-09T02:51:28.175Z,18.90
2018-08-09T02:51:28.775Z,19.01
2018-08-09T02:51:29.375Z,18.97
2018-08-09T02:51:29.975Z,18.99
2018-08-09T02:51:30.577Z,18.94
2018-08-09T02:52:25.078Z,18.82
2018-08-09T02:52:25.650Z,18.92
2018-08-09T02:52:26.251Z,18.99
2018-08-09T02:52:26.851Z,18.97
2018-08-09T02:52:27.452Z,18.92
2018-08-09T02:52:28.051Z,18.84
2018-08-09T02:52:28.651Z,18.90
2018-08-09T02:52:29.250Z,18.91
2018-08-09T02:53:23.753Z,18.87
2018-08-09T02:53:24.326Z,18.91
2018-08-09T02:53:24.926Z,18.91
2018-08-09T02:53:25.530Z,18.92
2018-08-09T02:53:26.127Z,18.84
2018-08-09T02:53:26.729Z,18.84
2018-08-09T02:53:27.327Z,18.82
2018-08-09T02:53:27.930Z,18.79
2018-08-09T02:54:22.429Z,18.90
2018-08-09T02:54:23.003Z,18.86
2018-08-09T02:54:23.603Z,18.83
2018-08-09T02:54:24.205Z,18.87
2018-08-09T02:54:24.803Z,18.83
2018-08-09T02:54:25.464Z,18.82
2018-08-09T02:54:26.002Z,18.86
2018-08-09T02:54:26.605Z,18.87
2018-08-09T02:55:20.091Z,18.80
2018-08-09T02:55:20.654Z,18.80
2018-08-09T02:55:21.254Z,18.79
2018-08-09T02:55:21.853Z,18.79
2018-08-09T02:55:22.454Z,18.82
2018-08-09T02:55:23.053Z,18.84
2018-08-09T02:55:23.654Z,18.76
2018-08-09T02:55:24.255Z,18.80
2018-08-09T02:56:17.836Z,18.76
2018-08-09T02:56:18.409Z,18.76
2018-08-09T02:56:19.009Z,18.77
2018-08-09T02:56:19.609Z,18.76
2018-08-09T02:56:20.209Z,18.76
2018-08-09T02:56:20.808Z,18.83
2018-08-09T02:56:21.410Z,18.82
2018-08-09T02:56:22.010Z,18.83
2018-08-09T02:57:15.487Z,18.73
2018-08-09T02:57:16.060Z,18.76
2018-08-09T02:57:16.661Z,18.72
2018-08-09T02:57:17.260Z,18.72
2018-08-09T02:57:17.860Z,18.76
2018-08-09T02:57:18.460Z,18.76
2018-08-09T02:57:19.065Z,18.76
2018-08-09T02:57:19.668Z,18.77
2018-08-09T02:58:14.164Z,18.64
2018-08-09T02:58:14.736Z,18.74
2018-08-09T02:58:15.335Z,18.74
2018-08-09T02:58:15.934Z,18.68
2018-08-09T02:58:16.537Z,18.76
2018-08-09T02:58:17.134Z,18.68
2018-08-09T02:58:17.737Z,18.79
2018-08-09T02:58:18.340Z,18.65
2018-08-09T02:59:12.839Z,18.64
2018-08-09T02:59:13.412Z,18.67
2018-08-09T02:59:14.011Z,18.73
2018-08-09T02:59:14.611Z,18.70
2018-08-09T02:59:15.210Z,18.67
2018-08-09T02:59:15.813Z,18.68
2018-08-09T02:59:16.409Z,18.61
2018-08-09T02:59:17.008Z,18.64
2018-08-09T03:00:11.518Z,18.72
2018-08-09T03:00:12.088Z,18.65
2018-08-09T03:00:12.686Z,18.72
2018-08-09T03:00:13.287Z,18.64
2018-08-09T03:00:13.888Z,18.64
2018-08-09T03:00:14.501Z,18.65
2018-08-09T03:00:15.089Z,18.67
2018-08-09T03:00:15.684Z,18.67
2018-08-09T03:01:09.167Z,18.62
2018-08-09T03:01:09.739Z,18.67
2018-08-09T03:01:10.338Z,18.65
2018-08-09T03:01:10.941Z,18.65
2018-08-09T03:01:11.540Z,18.72
2018-08-09T03:01:12.141Z,18.67
2018-08-09T03:01:12.741Z,18.59
2018-08-09T03:01:13.341Z,18.67
2018-08-09T03:02:06.830Z,18.61
2018-08-09T03:02:07.389Z,18.65
2018-08-09T03:02:07.991Z,18.70
2018-08-09T03:02:08.591Z,18.76
2018-08-09T03:02:09.191Z,18.73
2018-08-09T03:02:09.789Z,18.68
2018-08-09T03:02:10.390Z,18.65
2018-08-09T03:02:10.990Z,18.62
2018-08-09T03:03:04.483Z,18.59
2018-08-09T03:03:05.044Z,18.65
2018-08-09T03:03:05.643Z,18.55
2018-08-09T03:03:06.242Z,18.64
2018-08-09T03:03:06.843Z,18.55
2018-08-09T03:03:07.444Z,18.57
2018-08-09T03:03:08.043Z,18.59
2018-08-09T03:03:08.648Z,18.58
2018-08-09T03:04:03.148Z,18.50
2018-08-09T03:04:03.719Z,18.62
2018-08-09T03:04:04.319Z,18.64
2018-08-09T03:04:04.919Z,18.62
2018-08-09T03:04:05.519Z,18.62
2018-08-09T03:04:06.119Z,18.55
2018-08-09T03:04:06.720Z,18.61
2018-08-09T03:04:07.321Z,18.52
2018-08-09T03:05:01.822Z,18.58
2018-08-09T03:05:02.394Z,18.65
2018-08-09T03:05:02.995Z,18.64
2018-08-09T03:05:03.594Z,18.65
2018-08-09T03:05:04.193Z,18.57
2018-08-09T03:05:04.794Z,18.61